sensor_id;sensor_type;location;lat;lon;timestamp;temperature;humidity
44461;DHT22;30162;53.642;10.640;2022-11-03T00:08:31;9.30;97.50
44461;DHT22;30162;53.642;10.640;2022-11-03T00:11:12;9.30;97.70
44461;DHT22;30162;53.642;10.640;2022-11-03T00:13:40;9.50;98.40
44461;DHT22;30162;53.642;10.640;2022-11-03T00:16:07;9.60;97.90
44461;DHT22;30162;53.642;10.640;2022-11-03T00:18:33;9.50;97.90
44461;DHT22;30162;53.642;10.640;2022-11-03T00:21:04;9.70;97.70
44461;DHT22;30162;53.642;10.640;2022-11-03T00:23:32;9.70;97.70
44461;DHT22;30162;53.642;10.640;2022-11-03T00:28:34;9.70;97.90
44461;DHT22;30162;53.642;10.640;2022-11-03T00:31:04;9.60;97.80
44461;DHT22;30162;53.642;10.640;2022-11-03T00:33:33;9.60;98.00
44461;DHT22;30162;53.642;10.640;2022-11-03T00:36:00;9.60;98.00
44461;DHT22;30162;53.642;10.640;2022-11-03T00:38:26;9.60;98.10
44461;DHT22;30162;53.642;10.640;2022-11-03T00:40:56;9.70;98.00
44461;DHT22;30162;53.642;10.640;2022-11-03T00:43:23;9.90;97.90
44461;DHT22;30162;53.642;10.640;2022-11-03T00:45:49;10.00;97.80
44461;DHT22;30162;53.642;10.640;2022-11-03T00:48:15;10.10;97.50
44461;DHT22;30162;53.642;10.640;2022-11-03T00:51:11;9.90;97.60
44461;DHT22;30162;53.642;10.640;2022-11-03T00:53:42;9.70;97.70
44461;DHT22;30162;53.642;10.640;2022-11-03T00:56:14;9.70;98.30
44461;DHT22;30162;53.642;10.640;2022-11-03T00:58:41;9.90;98.10
44461;DHT22;30162;53.642;10.640;2022-11-03T01:01:10;10.00;98.00
44461;DHT22;30162;53.642;10.640;2022-11-03T01:03:37;10.00;97.60
44461;DHT22;30162;53.642;10.640;2022-11-03T01:06:08;9.90;97.50
44461;DHT22;30162;53.642;10.640;2022-11-03T01:08:52;9.90;97.80
44461;DHT22;30162;53.642;10.640;2022-11-03T01:11:21;10.00;97.70
44461;DHT22;30162;53.642;10.640;2022-11-03T01:14:05;10.00;97.90
44461;DHT22;30162;53.642;10.640;2022-11-03T01:16:31;10.00;97.70
44461;DHT22;30162;53.642;10.640;2022-11-03T01:18:57;10.20;97.80
44461;DHT22;30162;53.642;10.640;2022-11-03T01:21:23;10.30;97.50
44461;DHT22;30162;53.642;10.640;2022-11-03T01:23:49;10.40;97.20
44461;DHT22;30162;53.642;10.640;2022-11-03T01:26:15;10.20;97.50
44461;DHT22;30162;53.642;10.640;2022-11-03T01:28:43;10.30;97.60
44461;DHT22;30162;53.642;10.640;2022-11-03T01:31:20;10.30;97.50
44461;DHT22;30162;53.642;10.640;2022-11-03T01:33:47;10.20;97.40
44461;DHT22;30162;53.642;10.640;2022-11-03T01:36:14;10.30;97.20
44461;DHT22;30162;53.642;10.640;2022-11-03T01:38:40;10.40;97.10
44461;DHT22;30162;53.642;10.640;2022-11-03T01:41:08;10.30;97.30
44461;DHT22;30162;53.642;10.640;2022-11-03T01:43:37;10.30;97.40
44461;DHT22;30162;53.642;10.640;2022-11-03T01:46:05;10.40;97.10
44461;DHT22;30162;53.642;10.640;2022-11-03T01:48:34;10.20;97.10
44461;DHT22;30162;53.642;10.640;2022-11-03T01:51:02;10.30;97.30
44461;DHT22;30162;53.642;10.640;2022-11-03T01:53:29;10.30;97.20
44461;DHT22;30162;53.642;10.640;2022-11-03T01:55:55;10.30;97.00
44461;DHT22;30162;53.642;10.640;2022-11-03T01:58:26;10.20;97.10
44461;DHT22;30162;53.642;10.640;2022-11-03T02:00:54;10.20;97.30
44461;DHT22;30162;53.642;10.640;2022-11-03T02:03:22;10.10;97.40
44461;DHT22;30162;53.642;10.640;2022-11-03T02:05:48;10.10;97.40
44461;DHT22;30162;53.642;10.640;2022-11-03T02:08:29;10.00;97.30
44461;DHT22;30162;53.642;10.640;2022-11-03T02:10:56;9.80;97.60
44461;DHT22;30162;53.642;10.640;2022-11-03T02:13:25;9.90;97.50
44461;DHT22;30162;53.642;10.640;2022-11-03T02:15:54;10.10;97.50
44461;DHT22;30162;53.642;10.640;2022-11-03T02:18:25;10.10;97.40
44461;DHT22;30162;53.642;10.640;2022-11-03T02:20:59;10.20;97.30
44461;DHT22;30162;53.642;10.640;2022-11-03T02:23:45;10.30;97.20
44461;DHT22;30162;53.642;10.640;2022-11-03T02:26:12;10.20;97.40
44461;DHT22;30162;53.642;10.640;2022-11-03T02:28:39;10.20;97.10
44461;DHT22;30162;53.642;10.640;2022-11-03T02:31:23;10.10;97.30
44461;DHT22;30162;53.642;10.640;2022-11-03T02:33:58;10.30;97.30
44461;DHT22;30162;53.642;10.640;2022-11-03T02:36:57;10.40;97.40
44461;DHT22;30162;53.642;10.640;2022-11-03T02:39:33;10.50;97.10
44461;DHT22;30162;53.642;10.640;2022-11-03T02:42:02;10.20;97.10
44461;DHT22;30162;53.642;10.640;2022-11-03T02:44:28;10.20;97.30
44461;DHT22;30162;53.642;10.640;2022-11-03T02:47:02;10.30;97.10
44461;DHT22;30162;53.642;10.640;2022-11-03T02:49:28;10.50;96.80
44461;DHT22;30162;53.642;10.640;2022-11-03T02:52:01;10.30;96.90
44461;DHT22;30162;53.642;10.640;2022-11-03T02:54:38;10.30;97.00
44461;DHT22;30162;53.642;10.640;2022-11-03T02:57:20;10.20;97.10
44461;DHT22;30162;53.642;10.640;2022-11-03T03:00:02;10.30;97.50
44461;DHT22;30162;53.642;10.640;2022-11-03T03:05:07;10.30;97.20
44461;DHT22;30162;53.642;10.640;2022-11-03T03:07:36;10.30;97.30
44461;DHT22;30162;53.642;10.640;2022-11-03T03:10:22;10.30;97.20
44461;DHT22;30162;53.642;10.640;2022-11-03T03:12:51;10.40;97.20
44461;DHT22;30162;53.642;10.640;2022-11-03T03:15:19;10.10;97.10
44461;DHT22;30162;53.642;10.640;2022-11-03T03:17:55;10.30;97.30
44461;DHT22;30162;53.642;10.640;2022-11-03T03:20:28;10.20;97.50
44461;DHT22;30162;53.642;10.640;2022-11-03T03:23:12;10.00;97.60
44461;DHT22;30162;53.642;10.640;2022-11-03T03:25:44;10.10;97.90
44461;DHT22;30162;53.642;10.640;2022-11-03T03:28:46;10.00;97.90
44461;DHT22;30162;53.642;10.640;2022-11-03T03:31:11;10.10;97.70
44461;DHT22;30162;53.642;10.640;2022-11-03T03:33:39;10.20;97.80
44461;DHT22;30162;53.642;10.640;2022-11-03T03:36:09;10.20;97.70
44461;DHT22;30162;53.642;10.640;2022-11-03T03:38:40;10.40;97.70
44461;DHT22;30162;53.642;10.640;2022-11-03T03:41:07;10.40;97.40
44461;DHT22;30162;53.642;10.640;2022-11-03T03:43:34;10.40;97.30
44461;DHT22;30162;53.642;10.640;2022-11-03T03:46:06;10.50;97.20
44461;DHT22;30162;53.642;10.640;2022-11-03T03:48:32;10.60;97.10
44461;DHT22;30162;53.642;10.640;2022-11-03T03:50:59;10.50;97.20
44461;DHT22;30162;53.642;10.640;2022-11-03T03:53:28;10.40;97.00
44461;DHT22;30162;53.642;10.640;2022-11-03T03:55:55;10.30;97.30
44461;DHT22;30162;53.642;10.640;2022-11-03T03:58:22;10.50;97.30
44461;DHT22;30162;53.642;10.640;2022-11-03T04:00:47;10.50;96.90
44461;DHT22;30162;53.642;10.640;2022-11-03T04:03:24;10.60;96.90
44461;DHT22;30162;53.642;10.640;2022-11-03T04:05:50;10.60;96.80
44461;DHT22;30162;53.642;10.640;2022-11-03T04:08:17;10.50;96.80
44461;DHT22;30162;53.642;10.640;2022-11-03T04:10:44;10.60;96.70
44461;DHT22;30162;53.642;10.640;2022-11-03T04:13:31;10.50;96.60
44461;DHT22;30162;53.642;10.640;2022-11-03T04:16:16;10.40;96.90
44461;DHT22;30162;53.642;10.640;2022-11-03T04:19:00;10.10;97.50
44461;DHT22;30162;53.642;10.640;2022-11-03T04:21:44;10.30;97.10
44461;DHT22;30162;53.642;10.640;2022-11-03T04:24:28;10.50;97.00
44461;DHT22;30162;53.642;10.640;2022-11-03T04:27:00;10.70;96.70
44461;DHT22;30162;53.642;10.640;2022-11-03T04:29:26;10.50;96.70
44461;DHT22;30162;53.642;10.640;2022-11-03T04:31:52;10.50;96.80
44461;DHT22;30162;53.642;10.640;2022-11-03T04:34:18;10.70;96.70
44461;DHT22;30162;53.642;10.640;2022-11-03T04:36:43;10.50;96.90
44461;DHT22;30162;53.642;10.640;2022-11-03T04:39:15;10.70;96.90
44461;DHT22;30162;53.642;10.640;2022-11-03T04:41:42;10.70;96.70
44461;DHT22;30162;53.642;10.640;2022-11-03T04:44:15;10.90;96.50
44461;DHT22;30162;53.642;10.640;2022-11-03T04:46:42;10.90;96.50
44461;DHT22;30162;53.642;10.640;2022-11-03T04:49:20;10.90;96.50
44461;DHT22;30162;53.642;10.640;2022-11-03T04:51:46;10.80;96.60
44461;DHT22;30162;53.642;10.640;2022-11-03T04:54:15;10.80;96.50
44461;DHT22;30162;53.642;10.640;2022-11-03T04:56:42;10.80;96.50
44461;DHT22;30162;53.642;10.640;2022-11-03T04:59:10;10.80;96.80
44461;DHT22;30162;53.642;10.640;2022-11-03T05:01:36;10.80;96.50
44461;DHT22;30162;53.642;10.640;2022-11-03T05:04:10;10.90;96.50
44461;DHT22;30162;53.642;10.640;2022-11-03T05:06:36;10.50;96.80
44461;DHT22;30162;53.642;10.640;2022-11-03T05:09:13;10.80;96.60
44461;DHT22;30162;53.642;10.640;2022-11-03T05:11:41;10.80;96.40
44461;DHT22;30162;53.642;10.640;2022-11-03T05:14:21;10.60;96.90
44461;DHT22;30162;53.642;10.640;2022-11-03T05:16:48;10.70;96.80
44461;DHT22;30162;53.642;10.640;2022-11-03T05:19:19;10.70;96.70
44461;DHT22;30162;53.642;10.640;2022-11-03T05:21:46;10.80;96.70
44461;DHT22;30162;53.642;10.640;2022-11-03T05:24:14;10.80;96.50
44461;DHT22;30162;53.642;10.640;2022-11-03T05:26:40;10.90;96.60
44461;DHT22;30162;53.642;10.640;2022-11-03T05:29:12;10.90;96.30
44461;DHT22;30162;53.642;10.640;2022-11-03T05:31:40;10.80;96.60
44461;DHT22;30162;53.642;10.640;2022-11-03T05:34:30;11.00;96.40
44461;DHT22;30162;53.642;10.640;2022-11-03T05:39:43;10.90;96.50
44461;DHT22;30162;53.642;10.640;2022-11-03T05:42:24;10.60;96.80
44461;DHT22;30162;53.642;10.640;2022-11-03T05:44:51;10.50;96.70
44461;DHT22;30162;53.642;10.640;2022-11-03T05:47:20;10.50;96.70
44461;DHT22;30162;53.642;10.640;2022-11-03T05:49:48;10.40;97.00
44461;DHT22;30162;53.642;10.640;2022-11-03T05:52:20;10.60;96.80
44461;DHT22;30162;53.642;10.640;2022-11-03T05:54:46;10.60;97.00
44461;DHT22;30162;53.642;10.640;2022-11-03T05:57:15;10.80;96.60
44461;DHT22;30162;53.642;10.640;2022-11-03T05:59:47;10.50;96.40
44461;DHT22;30162;53.642;10.640;2022-11-03T06:04:53;10.70;96.70
44461;DHT22;30162;53.642;10.640;2022-11-03T06:07:29;10.50;96.80
44461;DHT22;30162;53.642;10.640;2022-11-03T06:09:57;10.30;97.10
44461;DHT22;30162;53.642;10.640;2022-11-03T06:12:24;10.30;97.20
44461;DHT22;30162;53.642;10.640;2022-11-03T06:14:50;10.50;97.10
44461;DHT22;30162;53.642;10.640;2022-11-03T06:17:21;10.60;97.00
44461;DHT22;30162;53.642;10.640;2022-11-03T06:19:49;10.60;96.70
44461;DHT22;30162;53.642;10.640;2022-11-03T06:22:34;10.40;97.20
44461;DHT22;30162;53.642;10.640;2022-11-03T06:27:47;10.40;97.20
44461;DHT22;30162;53.642;10.640;2022-11-03T06:30:27;10.50;97.10
44461;DHT22;30162;53.642;10.640;2022-11-03T06:32:57;10.60;97.00
44461;DHT22;30162;53.642;10.640;2022-11-03T06:35:22;10.70;96.80
44461;DHT22;30162;53.642;10.640;2022-11-03T06:37:48;10.60;96.80
44461;DHT22;30162;53.642;10.640;2022-11-03T06:42:40;10.50;96.90
44461;DHT22;30162;53.642;10.640;2022-11-03T06:45:21;10.50;97.00
44461;DHT22;30162;53.642;10.640;2022-11-03T06:47:48;10.30;97.00
44461;DHT22;30162;53.642;10.640;2022-11-03T06:50:23;10.70;96.90
44461;DHT22;30162;53.642;10.640;2022-11-03T06:52:50;10.70;96.70
44461;DHT22;30162;53.642;10.640;2022-11-03T06:55:35;10.70;96.80
44461;DHT22;30162;53.642;10.640;2022-11-03T07:00:46;10.90;96.50
44461;DHT22;30162;53.642;10.640;2022-11-03T07:03:27;11.10;96.30
44461;DHT22;30162;53.642;10.640;2022-11-03T07:06:14;11.10;96.30
44461;DHT22;30162;53.642;10.640;2022-11-03T07:08:44;11.30;96.10
44461;DHT22;30162;53.642;10.640;2022-11-03T07:11:25;11.10;95.90
44461;DHT22;30162;53.642;10.640;2022-11-03T07:13:54;10.90;96.10
44461;DHT22;30162;53.642;10.640;2022-11-03T07:16:36;10.90;96.60
44461;DHT22;30162;53.642;10.640;2022-11-03T07:19:12;10.80;96.60
44461;DHT22;30162;53.642;10.640;2022-11-03T07:21:59;11.10;96.30
44461;DHT22;30162;53.642;10.640;2022-11-03T07:24:43;11.40;96.20
44461;DHT22;30162;53.642;10.640;2022-11-03T07:27:22;11.20;96.00
44461;DHT22;30162;53.642;10.640;2022-11-03T07:29:50;11.20;96.30
44461;DHT22;30162;53.642;10.640;2022-11-03T07:32:21;11.40;96.20
44461;DHT22;30162;53.642;10.640;2022-11-03T07:34:48;11.70;96.00
44461;DHT22;30162;53.642;10.640;2022-11-03T07:37:19;11.60;95.80
44461;DHT22;30162;53.642;10.640;2022-11-03T07:39:45;11.30;95.90
44461;DHT22;30162;53.642;10.640;2022-11-03T07:42:17;11.40;96.00
44461;DHT22;30162;53.642;10.640;2022-11-03T07:44:43;11.50;96.10
44461;DHT22;30162;53.642;10.640;2022-11-03T07:47:15;11.70;96.00
44461;DHT22;30162;53.642;10.640;2022-11-03T07:49:43;11.80;95.70
44461;DHT22;30162;53.642;10.640;2022-11-03T07:52:12;11.70;96.20
44461;DHT22;30162;53.642;10.640;2022-11-03T07:54:39;11.80;96.10
44461;DHT22;30162;53.642;10.640;2022-11-03T07:57:23;12.00;95.60
44461;DHT22;30162;53.642;10.640;2022-11-03T07:59:52;12.30;95.60
44461;DHT22;30162;53.642;10.640;2022-11-03T08:02:31;12.30;95.50
44461;DHT22;30162;53.642;10.640;2022-11-03T08:04:59;12.20;95.50
44461;DHT22;30162;53.642;10.640;2022-11-03T08:07:25;12.40;95.60
44461;DHT22;30162;53.642;10.640;2022-11-03T08:09:52;12.10;95.40
44461;DHT22;30162;53.642;10.640;2022-11-03T08:12:18;11.90;96.00
44461;DHT22;30162;53.642;10.640;2022-11-03T08:14:44;12.20;96.10
44461;DHT22;30162;53.642;10.640;2022-11-03T08:17:09;12.40;95.70
44461;DHT22;30162;53.642;10.640;2022-11-03T08:19:35;12.60;95.90
44461;DHT22;30162;53.642;10.640;2022-11-03T08:22:00;12.70;95.70
44461;DHT22;30162;53.642;10.640;2022-11-03T08:24:26;13.00;95.70
44461;DHT22;30162;53.642;10.640;2022-11-03T08:26:51;13.10;95.60
44461;DHT22;30162;53.642;10.640;2022-11-03T08:29:17;13.00;95.40
44461;DHT22;30162;53.642;10.640;2022-11-03T08:31:43;12.90;95.10
44461;DHT22;30162;53.642;10.640;2022-11-03T08:34:09;13.00;95.40
44461;DHT22;30162;53.642;10.640;2022-11-03T08:36:34;13.00;95.60
44461;DHT22;30162;53.642;10.640;2022-11-03T08:39:00;13.20;95.50
44461;DHT22;30162;53.642;10.640;2022-11-03T08:41:26;13.30;95.70
44461;DHT22;30162;53.642;10.640;2022-11-03T08:43:51;13.40;95.80
44461;DHT22;30162;53.642;10.640;2022-11-03T08:46:17;13.60;95.40
44461;DHT22;30162;53.642;10.640;2022-11-03T08:48:43;13.60;95.10
44461;DHT22;30162;53.642;10.640;2022-11-03T08:51:08;13.60;95.20
44461;DHT22;30162;53.642;10.640;2022-11-03T08:53:37;13.40;95.60
44461;DHT22;30162;53.642;10.640;2022-11-03T08:56:03;13.60;95.60
44461;DHT22;30162;53.642;10.640;2022-11-03T08:58:30;13.50;95.50
44461;DHT22;30162;53.642;10.640;2022-11-03T09:00:56;13.40;95.50
44461;DHT22;30162;53.642;10.640;2022-11-03T09:03:21;13.50;95.60
44461;DHT22;30162;53.642;10.640;2022-11-03T09:05:47;13.70;95.60
44461;DHT22;30162;53.642;10.640;2022-11-03T09:08:13;13.80;95.50
44461;DHT22;30162;53.642;10.640;2022-11-03T09:10:38;13.80;95.20
44461;DHT22;30162;53.642;10.640;2022-11-03T09:13:04;13.50;95.50
44461;DHT22;30162;53.642;10.640;2022-11-03T09:15:30;13.80;95.50
44461;DHT22;30162;53.642;10.640;2022-11-03T09:17:55;14.00;95.30
44461;DHT22;30162;53.642;10.640;2022-11-03T09:20:21;13.80;95.30
44461;DHT22;30162;53.642;10.640;2022-11-03T09:22:47;13.90;95.50
44461;DHT22;30162;53.642;10.640;2022-11-03T09:25:12;13.90;95.20
44461;DHT22;30162;53.642;10.640;2022-11-03T09:27:38;13.90;95.10
44461;DHT22;30162;53.642;10.640;2022-11-03T09:30:04;14.30;95.30
44461;DHT22;30162;53.642;10.640;2022-11-03T09:32:30;14.30;95.40
44461;DHT22;30162;53.642;10.640;2022-11-03T09:34:56;14.00;94.80
44461;DHT22;30162;53.642;10.640;2022-11-03T09:37:22;14.20;95.30
44461;DHT22;30162;53.642;10.640;2022-11-03T09:39:48;14.60;94.90
44461;DHT22;30162;53.642;10.640;2022-11-03T09:42:14;14.80;94.80
44461;DHT22;30162;53.642;10.640;2022-11-03T09:44:40;14.70;95.00
44461;DHT22;30162;53.642;10.640;2022-11-03T09:47:14;14.70;94.60
44461;DHT22;30162;53.642;10.640;2022-11-03T09:49:43;14.70;94.60
44461;DHT22;30162;53.642;10.640;2022-11-03T09:52:13;14.90;94.50
44461;DHT22;30162;53.642;10.640;2022-11-03T09:54:39;14.70;94.90
44461;DHT22;30162;53.642;10.640;2022-11-03T09:57:10;14.80;95.00
44461;DHT22;30162;53.642;10.640;2022-11-03T09:59:37;14.70;94.70
44461;DHT22;30162;53.642;10.640;2022-11-03T10:02:18;14.40;95.10
44461;DHT22;30162;53.642;10.640;2022-11-03T10:04:44;14.40;94.90
44461;DHT22;30162;53.642;10.640;2022-11-03T10:07:10;14.40;95.30
44461;DHT22;30162;53.642;10.640;2022-11-03T10:09:38;14.90;95.30
44461;DHT22;30162;53.642;10.640;2022-11-03T10:12:08;15.10;94.80
44461;DHT22;30162;53.642;10.640;2022-11-03T10:14:33;14.50;94.90
44461;DHT22;30162;53.642;10.640;2022-11-03T10:16:59;14.90;95.20
44461;DHT22;30162;53.642;10.640;2022-11-03T10:19:25;15.20;95.00
44461;DHT22;30162;53.642;10.640;2022-11-03T10:21:51;15.20;95.10
44461;DHT22;30162;53.642;10.640;2022-11-03T10:24:17;14.90;94.60
44461;DHT22;30162;53.642;10.640;2022-11-03T10:26:50;14.80;95.00
44461;DHT22;30162;53.642;10.640;2022-11-03T10:29:34;14.90;95.30
44461;DHT22;30162;53.642;10.640;2022-11-03T10:32:00;15.40;94.90
44461;DHT22;30162;53.642;10.640;2022-11-03T10:39:35;15.90;94.30
44461;DHT22;30162;53.642;10.640;2022-11-03T10:42:01;16.10;94.40
44461;DHT22;30162;53.642;10.640;2022-11-03T10:44:28;16.60;94.30
44461;DHT22;30162;53.642;10.640;2022-11-03T10:46:59;16.40;93.30
44461;DHT22;30162;53.642;10.640;2022-11-03T10:49:27;16.60;93.80
44461;DHT22;30162;53.642;10.640;2022-11-03T10:52:17;16.40;93.60
44461;DHT22;30162;53.642;10.640;2022-11-03T10:54:44;16.80;94.00
44461;DHT22;30162;53.642;10.640;2022-11-03T10:57:09;17.20;93.20
44461;DHT22;30162;53.642;10.640;2022-11-03T10:59:37;17.30;93.30
44461;DHT22;30162;53.642;10.640;2022-11-03T11:02:13;17.30;93.10
44461;DHT22;30162;53.642;10.640;2022-11-03T11:04:40;16.60;93.70
44461;DHT22;30162;53.642;10.640;2022-11-03T11:07:33;17.00;93.80
44461;DHT22;30162;53.642;10.640;2022-11-03T11:10:09;17.20;92.70
44461;DHT22;30162;53.642;10.640;2022-11-03T11:12:36;17.20;93.80
44461;DHT22;30162;53.642;10.640;2022-11-03T11:15:05;16.50;93.10
44461;DHT22;30162;53.642;10.640;2022-11-03T11:17:48;17.00;93.40
44461;DHT22;30162;53.642;10.640;2022-11-03T11:22:47;17.80;92.80
44461;DHT22;30162;53.642;10.640;2022-11-03T11:25:13;18.00;92.80
44461;DHT22;30162;53.642;10.640;2022-11-03T11:37:46;18.20;92.50
44461;DHT22;30162;53.642;10.640;2022-11-03T11:40:48;18.10;92.30
44461;DHT22;30162;53.642;10.640;2022-11-03T11:48:33;17.90;92.20
44461;DHT22;30162;53.642;10.640;2022-11-03T11:51:00;17.70;92.30
44461;DHT22;30162;53.642;10.640;2022-11-03T11:53:27;17.80;92.40
44461;DHT22;30162;53.642;10.640;2022-11-03T11:56:00;18.00;92.50
44461;DHT22;30162;53.642;10.640;2022-11-03T12:01:00;18.10;92.60
44461;DHT22;30162;53.642;10.640;2022-11-03T12:05:56;17.90;92.90
44461;DHT22;30162;53.642;10.640;2022-11-03T12:08:28;17.90;92.90
44461;DHT22;30162;53.642;10.640;2022-11-03T12:11:04;17.70;92.70
44461;DHT22;30162;53.642;10.640;2022-11-03T12:13:49;17.60;92.90
44461;DHT22;30162;53.642;10.640;2022-11-03T12:16:34;17.50;92.40
44461;DHT22;30162;53.642;10.640;2022-11-03T12:21:56;17.80;92.70
44461;DHT22;30162;53.642;10.640;2022-11-03T12:24:33;17.40;92.50
44461;DHT22;30162;53.642;10.640;2022-11-03T12:27:01;17.10;92.80
44461;DHT22;30162;53.642;10.640;2022-11-03T12:29:28;17.20;92.90
44461;DHT22;30162;53.642;10.640;2022-11-03T12:31:53;17.50;92.80
44461;DHT22;30162;53.642;10.640;2022-11-03T12:34:19;17.70;92.40
44461;DHT22;30162;53.642;10.640;2022-11-03T12:36:44;17.80;92.40
44461;DHT22;30162;53.642;10.640;2022-11-03T12:39:10;17.60;92.50
44461;DHT22;30162;53.642;10.640;2022-11-03T12:41:36;17.40;93.30
44461;DHT22;30162;53.642;10.640;2022-11-03T12:44:02;17.60;92.80
44461;DHT22;30162;53.642;10.640;2022-11-03T12:46:27;17.50;92.90
44461;DHT22;30162;53.642;10.640;2022-11-03T12:48:54;17.40;92.60
44461;DHT22;30162;53.642;10.640;2022-11-03T12:51:21;17.20;93.00
44461;DHT22;30162;53.642;10.640;2022-11-03T12:53:47;17.30;93.10
44461;DHT22;30162;53.642;10.640;2022-11-03T12:56:13;17.40;93.10
44461;DHT22;30162;53.642;10.640;2022-11-03T12:58:39;17.10;92.80
44461;DHT22;30162;53.642;10.640;2022-11-03T13:01:05;16.70;93.70
44461;DHT22;30162;53.642;10.640;2022-11-03T13:03:31;16.40;93.90
44461;DHT22;30162;53.642;10.640;2022-11-03T13:05:58;16.70;94.10
44461;DHT22;30162;53.642;10.640;2022-11-03T13:08:24;16.80;93.70
44461;DHT22;30162;53.642;10.640;2022-11-03T13:10:50;16.80;93.30
44461;DHT22;30162;53.642;10.640;2022-11-03T13:13:16;17.10;93.50
44461;DHT22;30162;53.642;10.640;2022-11-03T13:15:41;16.70;93.40
44461;DHT22;30162;53.642;10.640;2022-11-03T13:18:07;16.90;93.50
44461;DHT22;30162;53.642;10.640;2022-11-03T13:20:32;16.40;93.50
44461;DHT22;30162;53.642;10.640;2022-11-03T13:22:58;16.40;94.00
44461;DHT22;30162;53.642;10.640;2022-11-03T13:25:24;16.40;93.60
44461;DHT22;30162;53.642;10.640;2022-11-03T13:27:50;16.30;93.80
44461;DHT22;30162;53.642;10.640;2022-11-03T13:30:21;16.30;94.10
44461;DHT22;30162;53.642;10.640;2022-11-03T13:32:47;16.70;93.90
44461;DHT22;30162;53.642;10.640;2022-11-03T13:35:13;17.00;93.50
44461;DHT22;30162;53.642;10.640;2022-11-03T13:37:39;17.00;93.20
44461;DHT22;30162;53.642;10.640;2022-11-03T13:40:05;16.60;93.20
44461;DHT22;30162;53.642;10.640;2022-11-03T13:42:31;16.50;93.40
44461;DHT22;30162;53.642;10.640;2022-11-03T13:44:56;16.50;93.30
44461;DHT22;30162;53.642;10.640;2022-11-03T13:47:22;16.70;93.60
44461;DHT22;30162;53.642;10.640;2022-11-03T13:49:48;16.90;93.30
44461;DHT22;30162;53.642;10.640;2022-11-03T13:52:17;16.70;93.50
44461;DHT22;30162;53.642;10.640;2022-11-03T13:54:42;16.80;93.50
44461;DHT22;30162;53.642;10.640;2022-11-03T13:57:08;16.50;93.60
44461;DHT22;30162;53.642;10.640;2022-11-03T13:59:33;16.50;93.80
44461;DHT22;30162;53.642;10.640;2022-11-03T14:02:00;16.80;93.40
44461;DHT22;30162;53.642;10.640;2022-11-03T14:04:25;17.00;93.50
44461;DHT22;30162;53.642;10.640;2022-11-03T14:06:51;17.00;93.10
44461;DHT22;30162;53.642;10.640;2022-11-03T14:09:16;17.00;93.20
44461;DHT22;30162;53.642;10.640;2022-11-03T14:11:42;17.10;93.30
44461;DHT22;30162;53.642;10.640;2022-11-03T14:14:26;16.50;93.20
44461;DHT22;30162;53.642;10.640;2022-11-03T14:16:51;16.50;93.80
44461;DHT22;30162;53.642;10.640;2022-11-03T14:19:17;16.30;93.70
44461;DHT22;30162;53.642;10.640;2022-11-03T14:21:42;16.30;93.90
44461;DHT22;30162;53.642;10.640;2022-11-03T14:24:08;16.30;93.80
44461;DHT22;30162;53.642;10.640;2022-11-03T14:26:34;15.80;94.00
44461;DHT22;30162;53.642;10.640;2022-11-03T14:28:59;16.00;94.30
44461;DHT22;30162;53.642;10.640;2022-11-03T14:31:25;16.00;94.10
44461;DHT22;30162;53.642;10.640;2022-11-03T14:33:50;16.10;94.00
44461;DHT22;30162;53.642;10.640;2022-11-03T14:36:16;16.30;94.00
44461;DHT22;30162;53.642;10.640;2022-11-03T14:38:41;16.30;93.80
44461;DHT22;30162;53.642;10.640;2022-11-03T14:41:07;15.70;94.20
44461;DHT22;30162;53.642;10.640;2022-11-03T14:43:51;16.00;94.30
44461;DHT22;30162;53.642;10.640;2022-11-03T14:46:16;16.20;94.10
44461;DHT22;30162;53.642;10.640;2022-11-03T14:48:42;16.30;94.20
44461;DHT22;30162;53.642;10.640;2022-11-03T14:51:07;16.00;94.20
44461;DHT22;30162;53.642;10.640;2022-11-03T14:53:33;16.20;94.10
44461;DHT22;30162;53.642;10.640;2022-11-03T14:55:58;16.00;94.00
44461;DHT22;30162;53.642;10.640;2022-11-03T14:58:24;16.10;94.10
44461;DHT22;30162;53.642;10.640;2022-11-03T15:00:49;15.70;94.30
44461;DHT22;30162;53.642;10.640;2022-11-03T15:03:15;15.80;94.60
44461;DHT22;30162;53.642;10.640;2022-11-03T15:05:40;15.90;94.50
44461;DHT22;30162;53.642;10.640;2022-11-03T15:08:13;16.00;94.60
44461;DHT22;30162;53.642;10.640;2022-11-03T15:10:39;16.10;94.30
44461;DHT22;30162;53.642;10.640;2022-11-03T15:13:05;15.90;94.20
44461;DHT22;30162;53.642;10.640;2022-11-03T15:15:30;15.90;94.20
44461;DHT22;30162;53.642;10.640;2022-11-03T15:17:56;15.90;94.40
44461;DHT22;30162;53.642;10.640;2022-11-03T15:20:21;15.90;94.20
44461;DHT22;30162;53.642;10.640;2022-11-03T15:22:47;15.90;94.60
44461;DHT22;30162;53.642;10.640;2022-11-03T15:25:12;16.00;94.30
44461;DHT22;30162;53.642;10.640;2022-11-03T15:27:38;15.90;94.30
44461;DHT22;30162;53.642;10.640;2022-11-03T15:30:05;15.80;94.40
44461;DHT22;30162;53.642;10.640;2022-11-03T15:32:32;15.70;94.30
44461;DHT22;30162;53.642;10.640;2022-11-03T15:34:57;15.90;94.20
44461;DHT22;30162;53.642;10.640;2022-11-03T15:37:23;15.60;94.30
44461;DHT22;30162;53.642;10.640;2022-11-03T15:39:49;15.80;94.50
44461;DHT22;30162;53.642;10.640;2022-11-03T15:42:15;15.70;94.60
44461;DHT22;30162;53.642;10.640;2022-11-03T15:44:40;15.50;94.40
44461;DHT22;30162;53.642;10.640;2022-11-03T15:47:06;15.50;94.70
44461;DHT22;30162;53.642;10.640;2022-11-03T15:49:32;15.40;94.80
44461;DHT22;30162;53.642;10.640;2022-11-03T15:51:57;15.60;94.70
44461;DHT22;30162;53.642;10.640;2022-11-03T15:54:23;15.30;94.80
44461;DHT22;30162;53.642;10.640;2022-11-03T15:56:48;15.30;94.70
44461;DHT22;30162;53.642;10.640;2022-11-03T15:59:14;15.50;94.80
44461;DHT22;30162;53.642;10.640;2022-11-03T16:01:39;15.60;94.70
44461;DHT22;30162;53.642;10.640;2022-11-03T16:04:05;15.50;94.80
44461;DHT22;30162;53.642;10.640;2022-11-03T16:06:31;15.50;94.60
44461;DHT22;30162;53.642;10.640;2022-11-03T16:08:57;15.60;94.50
44461;DHT22;30162;53.642;10.640;2022-11-03T16:11:22;15.50;94.70
44461;DHT22;30162;53.642;10.640;2022-11-03T16:13:48;15.30;94.50
44461;DHT22;30162;53.642;10.640;2022-11-03T16:16:13;15.20;94.90
44461;DHT22;30162;53.642;10.640;2022-11-03T16:18:39;15.50;94.80
44461;DHT22;30162;53.642;10.640;2022-11-03T16:21:04;15.10;94.90
44461;DHT22;30162;53.642;10.640;2022-11-03T16:23:30;15.30;95.10
44461;DHT22;30162;53.642;10.640;2022-11-03T16:25:56;15.30;95.30
44461;DHT22;30162;53.642;10.640;2022-11-03T16:28:21;15.50;95.20